createdAt,value
2023-02-15T14:19:40.527Z,52.93
2023-02-15T14:20:40.509Z,54.96
2023-02-15T14:21:40.552Z,52.83
2023-02-15T14:22:40.491Z,54.01
2023-02-15T14:23:40.482Z,52.54
2023-02-15T14:24:40.509Z,51.95
2023-02-15T14:25:40.465Z,51.90
2023-02-15T14:26:40.518Z,53.96
2023-02-15T14:27:41.583Z,50.60
2023-02-15T14:28:41.567Z,52.14
2023-02-15T14:29:41.627Z,53.69
2023-02-15T14:30:41.851Z,52.71
2023-02-15T14:31:41.794Z,56.27
2023-02-15T14:32:41.572Z,55.30
2023-02-15T14:33:41.537Z,50.37
2023-02-15T14:34:41.653Z,49.80
2023-02-15T14:35:41.520Z,54.08
2023-02-15T14:36:41.538Z,50.84
2023-02-15T14:37:41.508Z,53.30
2023-02-15T14:38:41.529Z,51.61
2023-02-15T14:39:41.543Z,51.34
2023-02-15T14:40:41.504Z,52.77
2023-02-15T14:41:41.513Z,53.40
2023-02-15T14:42:41.510Z,52.21
2023-02-15T14:43:41.504Z,51.75
2023-02-15T14:44:41.511Z,52.41
2023-02-15T14:45:41.521Z,53.93
2023-02-15T14:46:41.462Z,53.46
2023-02-15T14:47:41.443Z,52.65
2023-02-15T14:48:41.462Z,51.72
2023-02-15T14:49:41.472Z,51.78
2023-02-15T14:50:43.338Z,50.51
2023-02-15T14:51:41.451Z,51.23
2023-02-15T14:52:41.456Z,53.39
2023-02-15T14:53:41.435Z,51.70
2023-02-15T14:54:41.472Z,54.01
2023-02-15T14:55:41.403Z,54.19
2023-02-15T14:56:41.401Z,50.24
2023-02-15T14:57:41.395Z,50.79
2023-02-15T14:58:41.421Z,51.58
2023-02-15T14:59:41.395Z,51.08
2023-02-15T15:00:41.401Z,54.25
2023-02-15T15:01:41.504Z,50.91
2023-02-15T15:02:41.406Z,52.52
2023-02-15T15:03:41.351Z,51.62
2023-02-15T15:04:41.439Z,48.39
2023-02-15T15:05:41.335Z,54.59
2023-02-15T15:06:41.348Z,53.45
2023-02-15T15:07:41.315Z,52.68
2023-02-15T15:08:42.307Z,52.47
2023-02-15T15:09:41.318Z,51.91
2023-02-15T15:10:41.322Z,52.42
2023-02-15T15:11:44.143Z,47.26
2023-02-15T15:12:42.286Z,53.20
2023-02-15T15:13:41.275Z,50.56
2023-02-15T15:14:41.287Z,52.51
2023-02-15T15:15:41.307Z,51.52
2023-02-15T15:16:41.257Z,50.72
2023-02-15T15:17:41.254Z,52.76
2023-02-15T15:18:41.244Z,54.53
2023-02-15T15:19:51.459Z,52.16
2023-02-15T15:20:43.275Z,51.72
2023-02-15T15:21:41.222Z,53.13
2023-02-15T15:22:41.320Z,52.03
2023-02-15T15:23:41.214Z,53.28
2023-02-15T15:24:41.199Z,51.32
2023-02-15T15:25:41.224Z,50.28
2023-02-15T15:26:41.205Z,52.34
2023-02-15T15:27:41.177Z,51.18
2023-02-15T15:28:41.179Z,50.31
2023-02-15T15:29:41.169Z,51.52
2023-02-15T15:30:41.302Z,50.62
2023-02-15T15:31:41.307Z,52.38
2023-02-15T15:32:41.186Z,49.87
2023-02-15T15:33:41.177Z,50.47
2023-02-15T15:34:41.169Z,51.05
2023-02-15T15:35:41.141Z,60.22
2023-02-15T15:36:41.136Z,51.28
2023-02-15T15:37:41.107Z,54.92
2023-02-15T15:38:41.133Z,53.02
2023-02-15T15:39:41.116Z,53.80
2023-02-15T15:40:41.109Z,52.63
2023-02-15T15:41:41.081Z,53.82
2023-02-15T15:42:41.084Z,50.59
2023-02-15T15:43:41.069Z,50.26
2023-02-15T15:44:41.062Z,52.61
2023-02-15T15:45:41.080Z,49.87
2023-02-15T15:46:41.124Z,52.58
2023-02-15T15:47:41.044Z,53.85
2023-02-15T15:48:41.036Z,51.84
2023-02-15T15:49:41.040Z,51.16
2023-02-15T15:50:41.052Z,54.25
2023-02-15T15:51:41.042Z,50.09
2023-02-15T15:52:41.017Z,52.69
2023-02-15T15:53:41.058Z,53.64
2023-02-15T15:54:41.001Z,53.53
2023-02-15T15:55:41.046Z,53.19
2023-02-15T15:56:40.992Z,53.09
2023-02-15T15:57:41.025Z,54.01
2023-02-15T15:58:40.984Z,51.76
2023-02-15T15:59:41.010Z,51.34
2023-02-15T16:00:41.045Z,51.22
2023-02-15T16:01:41.033Z,53.03
2023-02-15T16:02:41.027Z,53.93
2023-02-15T16:03:40.955Z,52.76
2023-02-15T16:04:40.957Z,50.53
2023-02-15T16:05:40.966Z,52.12
2023-02-15T16:06:40.948Z,50.87
2023-02-15T16:07:40.922Z,49.52
2023-02-15T16:08:40.936Z,50.72
2023-02-15T16:09:40.906Z,51.01
2023-02-15T16:10:40.961Z,52.06
2023-02-15T16:11:40.897Z,50.05
2023-02-15T16:12:40.887Z,49.87
2023-02-15T16:13:40.908Z,51.54
2023-02-15T16:14:40.893Z,52.74
2023-02-15T16:15:40.999Z,50.10
2023-02-15T16:16:40.902Z,52.81
2023-02-15T16:17:40.861Z,54.92
2023-02-15T16:18:40.856Z,51.34
2023-02-15T16:19:40.854Z,51.12
2023-02-15T16:20:40.845Z,49.25
2023-02-15T16:21:40.864Z,51.23
2023-02-15T16:22:40.836Z,51.60
2023-02-15T16:23:40.817Z,55.58
2023-02-15T16:24:40.838Z,53.89
2023-02-15T16:25:40.807Z,56.21
2023-02-15T16:26:40.888Z,55.17
2023-02-15T16:27:40.803Z,52.92
2023-02-15T16:28:40.805Z,53.56
2023-02-15T16:29:40.770Z,52.37
2023-02-15T16:30:40.840Z,52.39
2023-02-15T16:31:40.885Z,53.35
2023-02-15T16:32:40.769Z,53.78
2023-02-15T16:33:40.785Z,55.37
2023-02-15T16:34:40.737Z,53.19
2023-02-15T16:35:40.749Z,53.25
2023-02-15T16:36:40.724Z,54.27
2023-02-15T16:37:40.718Z,53.37
2023-02-15T16:38:40.728Z,51.19
2023-02-15T16:39:40.714Z,53.10
2023-02-15T16:40:40.746Z,53.00
2023-02-15T16:41:40.715Z,52.77
2023-02-15T16:42:40.696Z,53.06
2023-02-15T16:43:40.686Z,54.69
2023-02-15T16:44:40.680Z,54.18
2023-02-15T16:45:40.689Z,53.54
2023-02-15T16:46:40.689Z,52.98
2023-02-15T16:47:40.656Z,55.56
2023-02-15T16:48:40.651Z,54.88
2023-02-15T16:49:40.648Z,51.25
2023-02-15T16:50:40.690Z,54.96
2023-02-15T16:51:40.645Z,56.65
2023-02-15T16:52:40.667Z,54.26
2023-02-15T16:53:40.655Z,53.79
2023-02-15T16:54:40.633Z,52.44
2023-02-15T16:55:40.615Z,55.56
2023-02-15T16:56:40.594Z,56.13
2023-02-15T16:57:40.584Z,51.82
2023-02-15T16:58:40.631Z,52.49
2023-02-15T16:59:40.638Z,52.94
2023-02-15T17:00:40.616Z,51.57
2023-02-15T17:01:40.608Z,50.97
2023-02-15T17:02:55.668Z,51.40
2023-02-15T17:03:42.604Z,53.63
2023-02-15T17:04:40.542Z,52.78
2023-02-15T17:05:40.554Z,53.53
2023-02-15T17:06:40.540Z,52.68
2023-02-15T17:07:40.530Z,51.19
2023-02-15T17:08:40.520Z,51.78
2023-02-15T17:09:40.538Z,48.50
2023-02-15T17:10:40.522Z,51.06
2023-02-15T17:11:40.510Z,49.28
2023-02-15T17:12:40.541Z,50.39
2023-02-15T17:13:40.492Z,50.74
2023-02-15T17:14:40.483Z,49.85
2023-02-15T17:15:40.503Z,47.80
2023-02-15T17:16:40.485Z,52.04
2023-02-15T17:17:40.468Z,54.16
2023-02-15T17:18:40.472Z,51.00
2023-02-15T17:19:40.466Z,50.77
2023-02-15T17:20:40.464Z,50.71
2023-02-15T17:21:40.445Z,53.80
2023-02-15T17:22:40.439Z,49.17
2023-02-15T17:23:40.427Z,51.94
2023-02-15T17:24:40.415Z,51.31
2023-02-15T17:25:40.459Z,50.30
2023-02-15T17:26:40.420Z,47.04
2023-02-15T17:27:40.417Z,50.91
2023-02-15T17:28:40.411Z,52.78
2023-02-15T17:29:40.396Z,51.57
2023-02-15T17:30:40.411Z,50.99
2023-02-15T17:31:40.459Z,51.89
2023-02-15T17:32:40.365Z,51.08
2023-02-15T17:33:40.524Z,51.54
2023-02-15T17:34:40.356Z,49.42
2023-02-15T17:35:40.488Z,50.17
2023-02-15T17:36:40.378Z,52.96
2023-02-15T17:37:40.455Z,48.11
2023-02-15T17:38:40.326Z,50.97
2023-02-15T17:39:40.394Z,52.31
2023-02-15T17:40:40.351Z,47.94
2023-02-15T17:41:40.475Z,47.55
2023-02-15T17:42:40.532Z,51.33
2023-02-15T17:43:40.351Z,50.07
2023-02-15T17:44:40.312Z,48.95
2023-02-15T17:45:40.337Z,49.20
2023-02-15T17:46:40.304Z,49.47
2023-02-15T17:47:40.275Z,49.56
2023-02-15T17:48:40.303Z,49.68
2023-02-15T17:49:40.316Z,49.50
2023-02-15T17:50:40.253Z,49.86
2023-02-15T17:51:42.532Z,51.28
2023-02-15T17:52:40.249Z,50.66
2023-02-15T17:53:40.274Z,49.72
2023-02-15T17:54:40.271Z,51.58
2023-02-15T17:55:40.249Z,47.76
2023-02-15T17:56:40.240Z,49.31
2023-02-15T17:57:40.225Z,48.07
2023-02-15T17:58:40.455Z,44.34
2023-02-15T17:59:40.226Z,49.94
2023-02-15T18:00:40.220Z,46.73
2023-02-15T18:01:40.368Z,48.75
2023-02-15T18:02:40.312Z,50.24
2023-02-15T18:03:40.262Z,45.78
2023-02-15T18:04:40.252Z,49.71
2023-02-15T18:05:40.378Z,51.80
2023-02-15T18:06:40.180Z,50.71
2023-02-15T18:07:41.467Z,50.64
2023-02-15T18:08:40.160Z,49.34
2023-02-15T18:09:40.279Z,47.27
2023-02-15T18:10:41.139Z,49.60
2023-02-15T18:11:40.155Z,48.36
2023-02-15T18:12:40.128Z,48.85
2023-02-15T18:13:40.132Z,49.34
2023-02-15T18:14:40.124Z,48.20
2023-02-15T18:15:40.820Z,50.41
2023-02-15T18:16:40.156Z,50.79
2023-02-15T18:17:40.104Z,48.77
2023-02-15T18:18:40.124Z,51.57
2023-02-15T18:19:40.075Z,52.57
2023-02-15T18:20:40.079Z,53.82
2023-02-15T18:21:40.177Z,48.52
2023-02-15T18:22:40.055Z,49.63
2023-02-15T18:23:40.058Z,45.03
2023-02-15T18:24:40.046Z,50.55
2023-02-15T18:25:40.046Z,47.51
2023-02-15T18:26:40.054Z,50.97
2023-02-15T18:27:40.026Z,48.68
2023-02-15T18:28:40.020Z,47.76
2023-02-15T18:29:40.012Z,50.50
2023-02-15T18:30:40.023Z,48.83
2023-02-15T18:31:40.103Z,51.80
2023-02-15T18:32:39.998Z,50.00
2023-02-15T18:33:39.990Z,47.67
2023-02-15T18:34:39.989Z,48.64
2023-02-15T18:35:39.994Z,49.78
2023-02-15T18:36:39.981Z,48.54
2023-02-15T18:37:39.962Z,45.94
2023-02-15T18:38:39.945Z,48.19
2023-02-15T18:39:39.975Z,51.31
2023-02-15T18:40:39.944Z,49.35
2023-02-15T18:41:39.932Z,46.76
2023-02-15T18:42:40.917Z,45.96
2023-02-15T18:43:39.935Z,48.22
2023-02-15T18:44:39.918Z,47.37
2023-02-15T18:45:39.964Z,48.25
2023-02-15T18:46:39.945Z,51.21
2023-02-15T18:47:39.920Z,50.01
2023-02-15T18:48:39.914Z,52.52
2023-02-15T18:49:40.075Z,45.20
2023-02-15T18:50:39.882Z,46.03
2023-02-15T18:51:39.910Z,50.34
2023-02-15T18:52:40.922Z,46.15
2023-02-15T18:53:39.877Z,47.63
2023-02-15T18:54:39.861Z,44.51
2023-02-15T18:55:39.845Z,49.33
2023-02-15T18:56:39.855Z,50.38
2023-02-15T18:57:39.813Z,50.18
2023-02-15T18:58:39.825Z,51.61
2023-02-15T18:59:39.815Z,46.74
2023-02-15T19:00:39.809Z,49.97
2023-02-15T19:01:39.861Z,45.79
2023-02-15T19:02:39.861Z,48.91
2023-02-15T19:03:39.803Z,43.30
2023-02-15T19:04:39.801Z,46.64
2023-02-15T19:05:39.777Z,48.39
2023-02-15T19:06:39.806Z,49.18
2023-02-15T19:07:39.774Z,50.25
2023-02-15T19:08:39.781Z,47.36
2023-02-15T19:09:39.762Z,47.86
2023-02-15T19:10:39.782Z,47.12
2023-02-15T19:11:39.769Z,48.66
2023-02-15T19:12:39.737Z,48.05
2023-02-15T19:13:39.752Z,46.38
2023-02-15T19:14:39.742Z,48.09
2023-02-15T19:15:39.730Z,48.76
2023-02-15T19:16:39.802Z,49.09
2023-02-15T19:17:39.717Z,48.85
2023-02-15T19:18:39.706Z,50.32
2023-02-15T19:19:39.745Z,50.23
2023-02-15T19:20:39.830Z,47.94
2023-02-15T19:21:39.732Z,52.48
2023-02-15T19:22:39.681Z,49.83
2023-02-15T19:23:39.702Z,49.63
2023-02-15T19:24:39.673Z,51.12
2023-02-15T19:25:39.678Z,47.91
2023-02-15T19:26:45.199Z,49.16
2023-02-15T19:27:41.643Z,49.02
2023-02-15T19:28:39.719Z,48.96
2023-02-15T19:29:39.633Z,46.80
2023-02-15T19:30:39.652Z,46.08
2023-02-15T19:31:39.800Z,48.92
2023-02-15T19:32:39.639Z,47.14
2023-02-15T19:33:39.617Z,46.35
2023-02-15T19:34:39.675Z,50.20
2023-02-15T19:35:39.627Z,49.54
2023-02-15T19:36:39.635Z,49.89
2023-02-15T19:37:42.104Z,51.23
2023-02-15T19:38:39.584Z,49.17
2023-02-15T19:39:39.577Z,49.25
2023-02-15T19:40:39.581Z,45.83
2023-02-15T19:41:39.647Z,47.44
2023-02-15T19:42:39.561Z,50.39
2023-02-15T19:43:39.559Z,47.22
2023-02-15T19:44:39.560Z,45.40
2023-02-15T19:45:39.536Z,49.32
2023-02-15T19:46:39.628Z,52.09
2023-02-15T19:47:39.550Z,49.96
2023-02-15T19:48:39.518Z,48.09
2023-02-15T19:49:39.513Z,44.60
2023-02-15T19:50:39.520Z,45.53
2023-02-15T19:51:39.531Z,45.78
2023-02-15T19:52:39.500Z,48.81
2023-02-15T19:53:39.509Z,49.94
2023-02-15T19:54:39.479Z,48.93
2023-02-15T19:55:39.495Z,46.93
2023-02-15T19:56:39.487Z,47.20
2023-02-15T19:57:39.482Z,48.72
2023-02-15T19:58:39.454Z,46.00
2023-02-15T19:59:39.450Z,45.77
2023-02-15T20:00:39.452Z,45.51
2023-02-15T20:01:39.554Z,48.99
2023-02-15T20:02:39.453Z,46.83
2023-02-15T20:03:39.433Z,49.10
2023-02-15T20:04:39.463Z,45.43
2023-02-15T20:05:39.461Z,45.50
2023-02-15T20:06:39.412Z,45.11
2023-02-15T20:07:39.423Z,46.03
2023-02-15T20:08:39.401Z,47.02
2023-02-15T20:09:39.405Z,46.33
2023-02-15T20:10:39.393Z,52.74
2023-02-15T20:11:39.396Z,47.11
2023-02-15T20:12:39.393Z,48.31
2023-02-15T20:13:39.366Z,48.25
2023-02-15T20:14:39.389Z,50.82
2023-02-15T20:15:39.396Z,47.95
2023-02-15T20:16:39.344Z,51.59
2023-02-15T20:17:39.355Z,49.13
2023-02-15T20:18:39.341Z,49.18
2023-02-15T20:19:39.328Z,47.98
2023-02-15T20:20:39.311Z,48.10
2023-02-15T20:21:39.345Z,48.18
2023-02-15T20:22:39.306Z,49.94
2023-02-15T20:23:39.291Z,48.11
2023-02-15T20:24:39.281Z,50.04
2023-02-15T20:25:40.348Z,46.74
2023-02-15T20:26:39.285Z,48.98
2023-02-15T20:27:39.314Z,47.51
2023-02-15T20:28:39.282Z,46.57
2023-02-15T20:29:39.260Z,48.79
2023-02-15T20:30:39.257Z,49.94
2023-02-15T20:31:39.521Z,45.23
2023-02-15T20:32:39.819Z,46.63
2023-02-15T20:33:39.255Z,50.11
2023-02-15T20:34:39.238Z,45.59
2023-02-15T20:35:39.241Z,48.68
2023-02-15T20:36:39.225Z,48.37
2023-02-15T20:37:39.207Z,46.96
2023-02-15T20:38:39.346Z,47.55
2023-02-15T20:39:39.180Z,54.73
2023-02-15T20:40:40.803Z,47.68
2023-02-15T20:41:39.221Z,49.49
2023-02-15T20:42:39.272Z,49.26
2023-02-15T20:43:39.237Z,47.05
2023-02-15T20:44:39.166Z,47.51
2023-02-15T20:45:39.160Z,51.68
2023-02-15T20:46:39.218Z,47.39
2023-02-15T20:47:39.146Z,48.94
2023-02-15T20:48:39.369Z,48.11
2023-02-15T20:49:39.125Z,48.92
2023-02-15T20:50:39.122Z,51.94
2023-02-15T20:51:39.112Z,54.50
2023-02-15T20:52:39.102Z,47.97
2023-02-15T20:53:39.121Z,49.47
2023-02-15T20:54:39.086Z,47.66
2023-02-15T20:55:39.079Z,48.62
2023-02-15T20:56:39.106Z,51.71
2023-02-15T20:57:39.086Z,49.41
2023-02-15T20:58:39.184Z,50.72
2023-02-15T20:59:39.063Z,48.62
2023-02-15T21:00:39.049Z,51.25
2023-02-15T21:01:39.121Z,47.96
2023-02-15T21:02:39.071Z,50.26
2023-02-15T21:03:39.054Z,54.29
2023-02-15T21:04:39.064Z,51.11
2023-02-15T21:05:39.020Z,47.57
2023-02-15T21:06:39.008Z,48.29
2023-02-15T21:07:39.046Z,49.20
2023-02-15T21:08:38.986Z,52.65
2023-02-15T21:09:39.987Z,51.73
2023-02-15T21:10:38.982Z,47.55
2023-02-15T21:11:38.977Z,52.73
2023-02-15T21:12:38.995Z,50.62
2023-02-15T21:13:38.988Z,52.14
2023-02-15T21:14:38.969Z,49.17
2023-02-15T21:15:38.966Z,52.84
2023-02-15T21:16:38.960Z,52.92
2023-02-15T21:17:38.969Z,53.16
2023-02-15T21:18:38.925Z,50.92
2023-02-15T21:19:40.970Z,49.42
2023-02-15T21:20:39.925Z,49.03
2023-02-15T21:21:38.917Z,47.83
2023-02-15T21:22:38.929Z,56.66
2023-02-15T21:23:38.899Z,58.42
2023-02-15T21:24:38.896Z,54.46
2023-02-15T21:25:38.909Z,51.74
2023-02-15T21:26:38.896Z,55.32
2023-02-15T21:27:38.895Z,51.34
2023-02-15T21:28:38.871Z,53.61
2023-02-15T21:29:38.956Z,50.67
2023-02-15T21:30:38.858Z,51.84
2023-02-15T21:31:39.007Z,51.23
2023-02-15T21:32:38.994Z,53.48
2023-02-15T21:33:38.846Z,50.00
2023-02-15T21:34:38.823Z,52.78
2023-02-15T21:35:38.837Z,51.22
2023-02-15T21:36:38.841Z,53.60
2023-02-15T21:37:38.836Z,54.71
2023-02-15T21:38:38.816Z,57.62
2023-02-15T21:39:38.802Z,58.20
2023-02-15T21:40:38.794Z,51.04
2023-02-15T21:41:38.790Z,58.70
2023-02-15T21:42:38.797Z,57.62
2023-02-15T21:43:38.761Z,53.30
2023-02-15T21:44:38.763Z,53.84
2023-02-15T21:45:38.762Z,57.90
2023-02-15T21:46:38.795Z,61.36
2023-02-15T21:47:38.767Z,58.27
2023-02-15T21:48:38.752Z,55.69
2023-02-15T21:49:38.746Z,58.61
2023-02-15T21:50:38.733Z,55.20
2023-02-15T21:51:38.721Z,53.62
2023-02-15T21:52:38.725Z,53.88
2023-02-15T21:53:38.696Z,54.73
2023-02-15T21:54:38.705Z,58.95
2023-02-15T21:55:38.718Z,56.46
2023-02-15T21:56:38.686Z,54.46
2023-02-15T21:57:38.707Z,55.20
2023-02-15T21:58:38.676Z,57.48
2023-02-15T21:59:38.678Z,58.40
2023-02-15T22:00:38.681Z,52.87
2023-02-15T22:01:38.650Z,51.80
2023-02-15T22:02:38.675Z,52.22
2023-02-15T22:03:38.675Z,53.62
2023-02-15T22:04:38.641Z,53.65
2023-02-15T22:05:38.658Z,56.27
2023-02-15T22:06:38.627Z,50.68
2023-02-15T22:07:38.647Z,50.63
2023-02-15T22:08:38.633Z,52.97
2023-02-15T22:09:38.613Z,54.20
2023-02-15T22:10:38.599Z,49.81
2023-02-15T22:11:38.722Z,49.29
2023-02-15T22:12:38.589Z,48.71
2023-02-15T22:13:38.571Z,46.90
2023-02-15T22:14:38.800Z,46.46
2023-02-15T22:15:38.640Z,49.30
2023-02-15T22:16:38.628Z,47.61
2023-02-15T22:17:38.539Z,50.72
2023-02-15T22:18:38.533Z,50.56
2023-02-15T22:19:38.578Z,47.47
2023-02-15T22:20:38.525Z,47.94
2023-02-15T22:21:38.523Z,46.20
2023-02-15T22:22:38.562Z,49.60
2023-02-15T22:23:38.527Z,49.50
2023-02-15T22:24:38.498Z,45.68
2023-02-15T22:25:38.595Z,46.51
2023-02-15T22:26:38.487Z,46.47
2023-02-15T22:27:38.499Z,46.56
2023-02-15T22:28:38.486Z,48.45
2023-02-15T22:29:38.473Z,48.46
2023-02-15T22:30:38.501Z,47.56
2023-02-15T22:31:38.533Z,46.71
2023-02-15T22:32:38.470Z,46.43
2023-02-15T22:33:38.484Z,43.99
2023-02-15T22:34:38.468Z,45.74
2023-02-15T22:35:38.457Z,45.32
2023-02-15T22:36:38.421Z,45.67
2023-02-15T22:37:38.431Z,48.90
2023-02-15T22:38:38.849Z,44.81
2023-02-15T22:39:38.416Z,45.23
2023-02-15T22:40:38.412Z,45.50
2023-02-15T22:41:38.395Z,44.40
2023-02-15T22:42:38.411Z,46.41
2023-02-15T22:43:38.430Z,45.65
2023-02-15T22:44:38.401Z,47.23
2023-02-15T22:45:38.426Z,46.92
2023-02-15T22:46:38.380Z,49.45
2023-02-15T22:47:38.354Z,44.90
2023-02-15T22:48:38.365Z,45.18
2023-02-15T22:49:38.346Z,48.04
2023-02-15T22:50:38.464Z,50.78
2023-02-15T22:51:38.328Z,46.32
2023-02-15T22:52:38.452Z,47.65
2023-02-15T22:53:38.349Z,45.92
2023-02-15T22:54:38.311Z,55.58
2023-02-15T22:55:38.299Z,54.02
2023-02-15T22:56:38.288Z,51.17
2023-02-15T22:57:38.298Z,50.80
2023-02-15T22:58:38.312Z,54.33
2023-02-15T22:59:38.277Z,52.45
2023-02-15T23:00:38.280Z,52.86
2023-02-15T23:01:38.269Z,53.92
2023-02-15T23:02:38.261Z,54.73
2023-02-15T23:03:38.322Z,59.93
2023-02-15T23:04:38.240Z,57.70
2023-02-15T23:05:39.340Z,57.84
2023-02-15T23:06:38.224Z,55.27
2023-02-15T23:07:38.230Z,53.94
2023-02-15T23:08:38.303Z,53.57
2023-02-15T23:09:38.223Z,52.97
2023-02-15T23:10:38.205Z,54.49
2023-02-15T23:11:39.247Z,53.81
2023-02-15T23:12:38.647Z,55.24
2023-02-15T23:13:39.362Z,55.32
2023-02-15T23:14:38.588Z,54.00
2023-02-15T23:15:40.152Z,55.57
2023-02-15T23:16:38.199Z,55.27
2023-02-15T23:17:38.162Z,49.22
2023-02-15T23:18:38.174Z,51.70
2023-02-15T23:19:38.145Z,49.77
2023-02-15T23:20:38.215Z,50.59
2023-02-15T23:21:38.143Z,48.34
2023-02-15T23:22:38.138Z,52.07
2023-02-15T23:23:38.166Z,52.69
2023-02-15T23:24:38.172Z,49.66
2023-02-15T23:25:38.133Z,48.25
2023-02-15T23:26:38.761Z,50.49
2023-02-15T23:27:38.120Z,48.28
2023-02-15T23:28:38.137Z,48.18
2023-02-15T23:29:38.132Z,48.96
2023-02-15T23:30:38.078Z,50.01
2023-02-15T23:31:38.227Z,48.82
2023-02-15T23:32:38.085Z,52.10
2023-02-15T23:33:38.090Z,49.50
2023-02-15T23:34:38.084Z,50.83
2023-02-15T23:35:38.056Z,50.34
2023-02-15T23:36:38.072Z,52.57
2023-02-15T23:37:38.102Z,52.67
2023-02-15T23:38:38.071Z,48.22
2023-02-15T23:39:38.031Z,51.97
2023-02-15T23:40:38.022Z,50.49
2023-02-15T23:41:38.035Z,50.52
2023-02-15T23:42:38.029Z,50.20
2023-02-15T23:43:38.033Z,48.63
2023-02-15T23:44:38.015Z,48.31
2023-02-15T23:45:38.116Z,50.17
2023-02-15T23:46:37.982Z,49.25
2023-02-15T23:47:37.982Z,49.17
2023-02-15T23:48:38.072Z,52.44
2023-02-15T23:49:38.914Z,53.67
2023-02-15T23:50:38.044Z,52.83
2023-02-15T23:51:38.062Z,56.63
2023-02-15T23:52:38.955Z,50.37
2023-02-15T23:53:38.805Z,53.20
2023-02-15T23:54:37.925Z,49.68
2023-02-15T23:55:37.923Z,54.93
2023-02-15T23:56:37.922Z,53.85
2023-02-15T23:57:37.906Z,52.53
2023-02-15T23:58:37.934Z,54.86
2023-02-15T23:59:37.898Z,50.76
